createdAt,value
2023-04-19T00:00:22.173Z,1016.69
2023-04-19T00:05:23.350Z,1016.77
2023-04-19T00:10:24.530Z,1016.73
2023-04-19T00:15:25.612Z,1016.74
2023-04-19T00:20:26.710Z,1016.79
2023-04-19T00:25:28.828Z,1016.77
2023-04-19T00:30:29.054Z,1016.74
2023-04-19T00:35:29.194Z,1016.80
2023-04-19T00:40:29.293Z,1016.77
2023-04-19T00:45:28.367Z,1016.70
2023-04-19T00:50:29.621Z,1016.65
2023-04-19T00:55:30.697Z,1016.56
2023-04-19T01:00:31.769Z,1016.57
2023-04-19T01:05:32.846Z,1016.55
2023-04-19T01:10:34.066Z,1016.60
2023-04-19T01:15:35.233Z,1016.57
2023-04-19T01:20:37.334Z,1016.50
2023-04-19T01:25:36.426Z,1016.55
2023-04-19T01:30:37.541Z,1016.55
2023-04-19T01:35:38.611Z,1016.54
2023-04-19T01:40:39.694Z,1016.47
2023-04-19T01:45:40.940Z,1016.42
2023-04-19T01:50:42.033Z,1016.34
2023-04-19T01:55:43.104Z,1016.35
2023-04-19T02:00:44.206Z,1016.29
2023-04-19T02:05:46.264Z,1016.32
2023-04-19T02:10:46.343Z,1016.31
2023-04-19T02:15:45.516Z,1016.33
2023-04-19T02:20:46.780Z,1016.19
2023-04-19T02:25:47.885Z,1016.21
2023-04-19T02:30:49.987Z,1016.18
2023-04-19T02:35:49.078Z,1016.19
2023-04-19T02:40:51.184Z,1016.29
2023-04-19T02:45:51.347Z,1016.24
2023-04-19T02:50:50.431Z,1016.18
2023-04-19T02:55:51.645Z,1016.20
2023-04-19T03:00:55.736Z,1016.14
2023-04-19T03:05:52.767Z,1016.21
2023-04-19T03:10:53.953Z,1016.21
2023-04-19T03:15:55.098Z,1016.23
2023-04-19T03:20:57.132Z,1016.18
2023-04-19T03:25:56.197Z,1016.19
2023-04-19T03:30:57.509Z,1016.15
2023-04-19T03:35:58.560Z,1016.08
2023-04-19T03:41:00.628Z,1016.03
2023-04-19T03:45:59.902Z,1016.00
2023-04-19T03:51:01.935Z,1015.95
2023-04-19T03:56:00.996Z,1015.96
2023-04-19T04:01:02.108Z,1015.90
2023-04-19T04:06:06.150Z,1015.91
2023-04-19T04:11:03.356Z,1015.86
2023-04-19T04:16:04.505Z,1015.92
2023-04-19T04:21:06.535Z,1015.98
2023-04-19T04:26:05.598Z,1016.03
2023-04-19T04:31:07.684Z,1016.02
2023-04-19T04:36:08.613Z,1016.00
2023-04-19T04:41:06.990Z,1016.12
2023-04-19T04:46:08.051Z,1016.10
2023-04-19T04:51:09.116Z,1016.19
2023-04-19T04:56:11.197Z,1016.12
2023-04-19T05:01:11.356Z,1016.09
2023-04-19T05:06:10.375Z,1016.17
2023-04-19T05:11:12.803Z,1016.19
2023-04-19T05:16:12.079Z,1016.19
2023-04-19T05:21:14.142Z,1016.17
2023-04-19T05:26:13.748Z,1016.23
2023-04-19T05:31:13.009Z,1016.19
2023-04-19T05:36:15.030Z,1016.20
2023-04-19T05:41:14.121Z,1016.16
2023-04-19T05:46:15.245Z,1016.21
2023-04-19T05:51:16.551Z,1016.24
2023-04-19T05:56:17.607Z,1016.26
2023-04-19T06:01:19.689Z,1016.24
2023-04-19T06:06:18.883Z,1016.23
2023-04-19T06:11:28.893Z,1016.31
2023-04-19T06:16:21.027Z,1016.27
2023-04-19T06:21:22.194Z,1016.25
2023-04-19T06:26:23.228Z,1016.31
2023-04-19T06:31:23.445Z,1016.35
2023-04-19T06:36:24.552Z,1016.31
2023-04-19T06:41:27.976Z,1016.35
2023-04-19T06:46:27.048Z,1016.34
2023-04-19T06:51:28.219Z,1016.31
2023-04-19T06:56:29.474Z,1016.36
2023-04-19T07:01:32.586Z,1016.37
2023-04-19T07:06:32.622Z,1016.39
2023-04-19T07:11:31.763Z,1016.39
2023-04-19T07:16:33.095Z,1016.43
2023-04-19T07:21:34.387Z,1016.38
2023-04-19T07:26:35.574Z,1016.37
2023-04-19T07:31:36.770Z,1016.33
2023-04-19T07:36:38.812Z,1016.31
2023-04-19T07:41:37.044Z,1016.29
2023-04-19T07:46:38.279Z,1016.32
2023-04-19T07:51:40.361Z,1016.26
2023-04-19T07:56:39.535Z,1016.28
2023-04-19T08:01:41.712Z,1016.28
2023-04-19T08:06:40.955Z,1016.29
2023-04-19T08:11:42.157Z,1016.31
2023-04-19T08:21:44.215Z,1016.25
2023-04-19T08:26:45.313Z,1016.23
2023-04-19T08:31:46.587Z,1016.22
2023-04-19T08:37:00.071Z,1016.23
2023-04-19T08:41:52.823Z,1016.23
2023-04-19T08:46:47.606Z,1016.19
2023-04-19T08:51:48.762Z,1016.13
2023-04-19T08:56:49.851Z,1016.13
2023-04-19T09:01:50.991Z,1016.15
2023-04-19T09:06:52.144Z,1016.06
2023-04-19T09:11:53.295Z,1015.98
2023-04-19T09:16:54.444Z,1016.02
2023-04-19T09:21:55.518Z,1015.98
2023-04-19T09:26:56.634Z,1015.93
2023-04-19T09:31:58.814Z,1015.90
2023-04-19T09:37:15.168Z,1015.83
2023-04-19T09:41:58.534Z,1015.78
2023-04-19T09:46:59.635Z,1015.71
2023-04-19T09:52:00.665Z,1015.63
2023-04-19T09:57:01.898Z,1015.61
2023-04-19T10:02:03.090Z,1015.61
2023-04-19T10:07:25.162Z,1015.55
2023-04-19T10:12:18.578Z,1015.58
2023-04-19T10:17:04.096Z,1015.53
2023-04-19T10:22:05.252Z,1015.50
2023-04-19T10:27:07.423Z,1015.45
2023-04-19T10:32:07.480Z,1015.49
2023-04-19T10:37:06.500Z,1015.40
2023-04-19T10:42:07.670Z,1015.29
2023-04-19T10:47:09.733Z,1015.25
2023-04-19T10:52:09.945Z,1015.09
2023-04-19T10:57:10.024Z,1015.05
2023-04-19T11:02:10.105Z,1014.91
2023-04-19T11:07:10.153Z,1014.91
2023-04-19T11:12:09.214Z,1014.79
2023-04-19T11:17:10.294Z,1014.82
2023-04-19T11:22:11.498Z,1014.70
2023-04-19T11:27:12.651Z,1014.64
2023-04-19T11:32:13.805Z,1014.64
2023-04-19T11:37:14.932Z,1014.51
2023-04-19T11:42:15.994Z,1014.48
2023-04-19T11:47:17.074Z,1014.48
2023-04-19T11:52:18.220Z,1014.41
2023-04-19T11:57:19.373Z,1014.36
2023-04-19T12:02:20.550Z,1014.36
2023-04-19T12:07:22.602Z,1014.37
2023-04-19T12:12:21.678Z,1014.31
2023-04-19T12:17:22.782Z,1014.32
2023-04-19T12:22:23.870Z,1014.24
2023-04-19T12:27:25.039Z,1014.31
2023-04-19T12:32:26.156Z,1014.36
2023-04-19T12:37:28.571Z,1014.30
2023-04-19T12:42:27.683Z,1014.19
2023-04-19T12:47:28.824Z,1014.20
2023-04-19T12:52:30.013Z,1014.15
2023-04-19T12:57:31.181Z,1014.16
2023-04-19T13:02:32.336Z,1014.05
2023-04-19T13:07:33.545Z,1014.04
2023-04-19T13:12:34.607Z,1013.91
2023-04-19T13:17:35.804Z,1013.82
2023-04-19T13:22:37.887Z,1013.79
2023-04-19T13:27:36.975Z,1013.71
2023-04-19T13:32:38.189Z,1013.67
2023-04-19T13:37:40.278Z,1013.57
2023-04-19T13:42:39.309Z,1013.57
2023-04-19T13:47:40.473Z,1013.49
2023-04-19T13:52:42.807Z,1013.47
2023-04-19T13:57:41.907Z,1013.35
2023-04-19T14:02:44.060Z,1013.36
2023-04-19T14:07:42.125Z,1013.26
2023-04-19T14:12:43.236Z,1013.24
2023-04-19T14:17:44.424Z,1013.15
2023-04-19T14:22:45.578Z,1013.06
2023-04-19T14:27:46.719Z,1013.10
2023-04-19T14:32:47.982Z,1013.07
2023-04-19T14:37:49.160Z,1013.00
2023-04-19T14:42:50.335Z,1012.98
2023-04-19T14:47:51.471Z,1012.94
2023-04-19T14:52:52.543Z,1012.86
2023-04-19T14:57:53.636Z,1012.84
2023-04-19T15:02:54.920Z,1012.86
2023-04-19T15:07:56.021Z,1012.84
2023-04-19T15:12:57.238Z,1012.84
2023-04-19T15:17:58.444Z,1012.86
2023-04-19T15:22:59.531Z,1012.89
2023-04-19T15:27:59.735Z,1012.82
2023-04-19T15:33:01.906Z,1012.87
2023-04-19T15:38:01.103Z,1012.82
2023-04-19T15:43:02.258Z,1012.83
2023-04-19T15:48:05.429Z,1012.85
2023-04-19T15:53:04.545Z,1012.82
2023-04-19T15:58:05.654Z,1012.82
2023-04-19T16:03:06.921Z,1012.82
2023-04-19T16:08:08.101Z,1012.75
2023-04-19T16:13:09.356Z,1012.71
2023-04-19T16:18:10.548Z,1012.72
2023-04-19T16:23:11.614Z,1012.70
2023-04-19T16:28:13.759Z,1012.66
2023-04-19T16:33:13.838Z,1012.64
2023-04-19T16:38:13.096Z,1012.61
2023-04-19T16:43:14.248Z,1012.55
2023-04-19T16:48:15.512Z,1012.52
2023-04-19T16:53:16.653Z,1012.45
2023-04-19T16:58:17.744Z,1012.44
2023-04-19T17:03:19.270Z,1012.41
2023-04-19T17:08:18.514Z,1012.37
2023-04-19T17:13:19.754Z,1012.37
2023-04-19T17:18:21.006Z,1012.43
2023-04-19T17:23:22.148Z,1012.54
2023-04-19T17:28:23.573Z,1012.59
2023-04-19T17:33:23.181Z,1012.67
2023-04-19T17:38:22.563Z,1012.69
2023-04-19T17:43:30.865Z,1012.90
2023-04-19T17:48:26.229Z,1012.88
2023-04-19T17:53:25.616Z,1012.90
2023-04-19T17:58:27.194Z,1012.94
2023-04-19T18:03:27.524Z,1012.92
2023-04-19T18:08:27.935Z,1012.97
2023-04-19T18:13:27.408Z,1013.00
2023-04-19T18:18:27.800Z,1013.00
2023-04-19T18:23:29.886Z,1013.06
2023-04-19T18:28:28.363Z,1013.10
2023-04-19T18:33:28.836Z,1013.23
2023-04-19T18:38:28.333Z,1013.17
2023-04-19T18:43:30.819Z,1013.28
2023-04-19T18:48:29.567Z,1013.27
2023-04-19T18:53:33.682Z,1013.28
2023-04-19T18:58:29.858Z,1013.27
2023-04-19T19:03:57.923Z,1013.34
2023-04-19T19:08:32.417Z,1013.37
2023-04-19T19:13:31.845Z,1013.35
2023-04-19T19:18:33.084Z,1013.48
2023-04-19T19:23:36.268Z,1013.51
2023-04-19T19:28:32.863Z,1013.55
2023-04-19T19:33:33.355Z,1013.64
2023-04-19T19:38:32.521Z,1013.72
2023-04-19T19:43:33.926Z,1013.74
2023-04-19T19:48:39.130Z,1013.78
2023-04-19T19:53:33.622Z,1013.72
2023-04-19T20:03:37.699Z,1013.67
2023-04-19T20:08:37.475Z,1013.63
2023-04-19T20:13:34.972Z,1013.60
2023-04-19T20:18:34.489Z,1013.60
2023-04-19T20:23:33.970Z,1013.60
2023-04-19T20:28:34.542Z,1013.69
2023-04-19T20:33:35.714Z,1013.63
2023-04-19T20:38:35.206Z,1013.71
2023-04-19T20:43:34.700Z,1013.70
2023-04-19T20:48:34.102Z,1013.69
2023-04-19T20:53:36.374Z,1013.61
2023-04-19T20:58:37.073Z,1013.56
2023-04-19T21:03:36.405Z,1013.53
2023-04-19T21:08:37.618Z,1013.54
2023-04-19T21:13:39.731Z,1013.50
2023-04-19T21:18:38.785Z,1013.51
2023-04-19T21:23:39.877Z,1013.55
2023-04-19T21:28:40.967Z,1013.52
2023-04-19T21:33:42.088Z,1013.41
2023-04-19T21:38:44.190Z,1013.45
2023-04-19T21:43:44.276Z,1013.45
2023-04-19T21:48:43.375Z,1013.40
2023-04-19T21:53:44.473Z,1013.33
2023-04-19T21:58:46.535Z,1013.38
2023-04-19T22:03:46.936Z,1013.31
2023-04-19T22:08:47.186Z,1013.22
2023-04-19T22:13:46.280Z,1013.31
2023-04-19T22:18:48.358Z,1013.23
2023-04-19T22:23:47.432Z,1013.21
2023-04-19T22:28:48.548Z,1013.16
2023-04-19T22:33:54.533Z,1013.20
2023-04-19T22:38:50.570Z,1013.16
2023-04-19T22:43:49.904Z,1013.13
2023-04-19T22:48:50.971Z,1013.06
2023-04-19T22:53:53.058Z,1013.01
2023-04-19T22:58:52.135Z,1012.95
2023-04-19T23:03:53.246Z,1012.90
2023-04-19T23:08:54.344Z,1012.80
2023-04-19T23:13:55.425Z,1012.77
2023-04-19T23:18:56.520Z,1012.77
2023-04-19T23:23:57.760Z,1012.69
2023-04-19T23:28:58.819Z,1012.63
2023-04-19T23:33:59.884Z,1012.60
2023-04-19T23:39:00.946Z,1012.56
2023-04-19T23:44:02.006Z,1012.46
2023-04-19T23:49:03.086Z,1012.45
2023-04-19T23:54:04.173Z,1012.46
2023-04-19T23:59:06.255Z,1012.39
